Aérodrome :
LOGIN :

S'inscrire | Disclaimer

   EN    FR    IT 

 










Légende :    VFR   VFR Marginal   IFR   IFR Intensif   IFR Très Intensif
Visi : 
Plafond : 
>= 8 km
>= 3000ft
5 à 8 km
1000 à 3000 ft
1500m à 5 km
500 à 1000 ft
800 à 1500m
200 à 500 ft
< 800m
< 200 ft
Symboles :   Orages  Brouillard  Fortes neiges  Fortes précipitations  Vent > 20 kt
SIGMETs :   Divers  Orages  Givrage  Turbulence  Onde Orograph.  Cendres Volcan.






- Altitude de l'aérodrome : 36 ft


EGXV - RAF Leconfield

DERNIER METAR :
  • 282120Z AUTO 20011KT 8000 // BKN007/// SCT015/// BKN110/// 10/09 Q1004

METARs EXPIRÉS :
  • 282050Z AUTO 20010KT 6000 -RA OVC006/// 10/09 Q1004
  • 282020Z AUTO 20012KT 9999 // OVC007/// 10/09 Q1005
  • 281950Z AUTO 20012KT 5000 -RA SCT007/// SCT045/// OVC062/// 09/08 Q1005
  • 281920Z AUTO 20010KT 6000 -RA FEW007/// SCT049/// 09/08 Q1006
  • 281850Z AUTO 20010KT 8000 -RA FEW009/// OVC056/// 09/08 Q1007
  • 281820Z AUTO 20012KT 9999 -RA OVC010/// 09/08 Q1007
  • 281750Z AUTO 20011KT 9999 OVC010/// 09/07 Q1007
  • 281720Z AUTO 20012KT 9999 OVC010/// 09/07 Q1008
  • 281650Z AUTO 19011KT 9999 OVC012/// 09/07 Q1008

TAF N/A



MET'MAP, la Météo Aéronautique d'un coup d'oeil ! - Copyright ORBIFLY Décembre 2007 - Disclaimer

ORBIFLY MET'MAP TEAM :

Programmation & Développement : Alexandra Zaïnal
Sur une idée originale de : Baudouin d'Aumeries
Soutien technique & logistique : Manuel Goepfert
Assistance : Marc-Olivier Méhu




SOURCES & CREDITS :

   NOAA